Hopland, California
Current Conditions -  °F | °C
As of 6:56 AM on Tuesday 21 Oct 2014 (Local Time) from KUKI Reporting Station
Overcast Overcast  
Wind Chill: 49°   Ceiling: 300
Heat Index: 49°   Visibility: 10mi
Dew Point: 46°   Wind: 3mph
Humidity: 90%   Direction: 280°W
Pressure: 30.14"   Gusts: NA
Location:  38.97°N, 123.12°W
Report Text: KUKI 211356Z AUTO 28003KT 10SM OVC003 09/08 A3014 RMK AO2 SLP202 T00940078
Loading
Personal Weather Stations






























Interactive Weather Map
Tropical Storm Tracking
New forecast layout! Learn more

10-Day Weather Forecast

Advertisements
Track Severe Weather on mobile